Anchor Bay, California
Current Conditions -  °F | °C
As of 8:29 PM on Friday 19 Dec 2014 (Local Time) from KUKI Reporting Station
Overcast Overcast  
Wind Chill: 52°   Ceiling: 3600
Heat Index: 52°   Visibility: 9mi
Dew Point: 49°   Wind: 3mph
Humidity: 89%   Direction: 290°WNW
Pressure: 30.12"   Gusts: NA
Location:  38.8361°N, 123.43°W
Report Text: KUKI 200429Z AUTO 29003KT 9SM SCT009 SCT019 OVC036 11/09 A3012 RMK AO2 T01110094
Loading
Personal Weather Stations






























Interactive Weather Map New forecast layout! Learn more

10-Day Weather Forecast

Advertisements
Track Severe Weather on mobile